createdAt,value
2022-11-20T00:02:37.288Z,3.53
2022-11-20T00:05:39.890Z,3.38
2022-11-20T00:08:42.915Z,3.40
2022-11-20T00:11:45.419Z,3.51
2022-11-20T00:14:47.658Z,3.30
2022-11-20T00:17:50.172Z,3.28
2022-11-20T00:20:52.629Z,3.42
2022-11-20T00:23:57.205Z,3.43
2022-11-20T00:26:59.458Z,3.23
2022-11-20T00:30:02.052Z,3.35
2022-11-20T00:33:04.377Z,3.39
2022-11-20T00:36:10.311Z,3.31
2022-11-20T00:39:12.540Z,3.39
2022-11-20T00:42:15.168Z,3.32
2022-11-20T00:45:17.451Z,3.42
2022-11-20T00:48:20.102Z,3.42
2022-11-20T00:51:24.803Z,3.45
2022-11-20T00:54:27.313Z,3.22
2022-11-20T00:57:29.560Z,3.21
2022-11-20T01:00:32.067Z,3.38
2022-11-20T01:03:40.038Z,3.37
2022-11-20T01:06:42.724Z,3.37
2022-11-20T01:09:44.969Z,3.18
2022-11-20T01:13:07.448Z,3.24
2022-11-20T01:16:16.891Z,3.20
2022-11-20T01:19:22.891Z,3.30
2022-11-20T01:22:25.276Z,3.27
2022-11-20T01:25:27.775Z,3.23
2022-11-20T01:28:30.865Z,3.07
2022-11-20T01:31:38.087Z,3.01
2022-11-20T01:34:40.351Z,3.03
2022-11-20T01:37:42.931Z,3.20
2022-11-20T01:40:45.173Z,3.17
2022-11-20T01:43:47.653Z,2.99
2022-11-20T01:47:00.206Z,3.15
2022-11-20T01:50:17.787Z,2.97
2022-11-20T01:53:23.904Z,2.97
2022-11-20T01:56:28.038Z,3.07
2022-11-20T01:59:30.782Z,2.97
2022-11-20T02:02:33.659Z,3.12
2022-11-20T02:06:10.106Z,3.10
2022-11-20T02:09:12.915Z,3.12
2022-11-20T02:12:35.785Z,3.12
2022-11-20T02:15:38.286Z,3.16
2022-11-20T02:18:41.666Z,3.05
2022-11-20T02:21:56.072Z,3.06
2022-11-20T02:25:02.427Z,3.23
2022-11-20T02:28:05.965Z,3.25
2022-11-20T02:31:08.733Z,3.18
2022-11-20T02:34:10.971Z,3.11
2022-11-20T02:37:14.525Z,3.10
2022-11-20T02:40:17.034Z,3.28
2022-11-20T02:43:19.613Z,3.31
2022-11-20T02:46:21.859Z,3.29
2022-11-20T02:49:24.587Z,3.25
2022-11-20T02:52:27.206Z,3.31
2022-11-20T02:55:29.735Z,3.33
2022-11-20T02:58:31.941Z,3.21
2022-11-20T03:01:34.879Z,3.23
2022-11-20T03:04:37.331Z,3.37
2022-11-20T03:07:39.886Z,3.40
2022-11-20T03:10:42.091Z,3.41
2022-11-20T03:13:44.556Z,3.27
2022-11-20T03:16:46.758Z,3.43
2022-11-20T03:19:49.226Z,3.42
2022-11-20T03:22:51.747Z,3.28
2022-11-20T03:25:54.222Z,3.32
2022-11-20T03:29:01.237Z,3.48
2022-11-20T03:32:03.869Z,3.34
2022-11-20T03:35:06.867Z,3.48
2022-11-20T03:38:09.402Z,3.39
2022-11-20T03:41:17.471Z,3.53
2022-11-20T03:44:23.005Z,3.52
2022-11-20T03:47:25.295Z,3.54
2022-11-20T03:50:27.842Z,3.38
2022-11-20T03:53:30.117Z,3.49
2022-11-20T03:56:36.419Z,3.40
2022-11-20T03:59:38.669Z,3.55
2022-11-20T04:02:41.172Z,3.51
2022-11-20T04:05:43.651Z,3.42
2022-11-20T04:08:51.001Z,3.37
2022-11-20T04:11:56.216Z,3.49
2022-11-20T04:14:58.420Z,3.53
2022-11-20T04:18:00.912Z,3.54
2022-11-20T04:21:05.098Z,3.51
2022-11-20T04:24:08.530Z,3.41
2022-11-20T04:27:10.743Z,3.53
2022-11-20T04:30:13.778Z,3.55
2022-11-20T04:33:15.983Z,3.41
2022-11-20T04:36:28.452Z,3.56
2022-11-20T04:39:30.829Z,3.44
2022-11-20T04:42:33.420Z,3.37
2022-11-20T04:45:35.674Z,3.57
2022-11-20T04:48:38.176Z,3.39
2022-11-20T04:51:40.387Z,3.40
2022-11-20T04:54:42.906Z,3.58
2022-11-20T04:57:45.240Z,3.59
2022-11-20T05:00:47.712Z,3.60
2022-11-20T05:03:50.504Z,3.56
2022-11-20T05:06:52.952Z,3.56
2022-11-20T05:09:55.243Z,3.53
2022-11-20T05:12:58.274Z,3.55
2022-11-20T05:16:27.217Z,3.57
2022-11-20T05:19:30.007Z,3.56
2022-11-20T05:22:32.238Z,3.58
2022-11-20T05:25:34.749Z,3.44
2022-11-20T05:28:37.026Z,3.61
2022-11-20T05:31:41.229Z,3.53
2022-11-20T05:34:43.458Z,3.37
2022-11-20T05:37:45.942Z,3.68
2022-11-20T05:40:48.242Z,3.51
2022-11-20T05:43:51.486Z,3.57
2022-11-20T05:46:53.727Z,3.53
2022-11-20T05:49:56.314Z,3.59
2022-11-20T05:53:01.705Z,3.69
2022-11-20T05:56:07.285Z,3.62
2022-11-20T05:59:09.517Z,3.67
2022-11-20T06:02:12.468Z,3.53
2022-11-20T06:05:15.410Z,3.70
2022-11-20T06:08:17.645Z,3.72
2022-11-20T06:11:20.295Z,3.75
2022-11-20T06:14:22.630Z,3.76
2022-11-20T06:17:25.110Z,3.64
2022-11-20T06:20:27.299Z,3.77
2022-11-20T06:23:31.861Z,3.64
2022-11-20T06:26:34.064Z,3.77
2022-11-20T06:29:36.545Z,3.79
2022-11-20T06:32:38.747Z,3.87
2022-11-20T06:35:41.313Z,3.72
2022-11-20T06:38:44.008Z,3.91
2022-11-20T06:41:46.473Z,3.89
2022-11-20T06:44:48.667Z,3.80
2022-11-20T06:47:51.131Z,3.79
2022-11-20T06:50:53.340Z,4.04
2022-11-20T06:53:55.879Z,4.03
2022-11-20T06:56:58.134Z,4.00
2022-11-20T07:00:00.615Z,4.06
2022-11-20T07:03:07.319Z,4.11
2022-11-20T07:06:10.389Z,4.26
2022-11-20T07:09:13.046Z,4.31
2022-11-20T07:12:15.610Z,4.32
2022-11-20T07:15:18.905Z,4.33
2022-11-20T07:18:22.266Z,4.23
2022-11-20T07:21:24.509Z,4.37
2022-11-20T07:24:26.999Z,4.21
2022-11-20T07:27:29.246Z,4.26
2022-11-20T07:30:31.844Z,4.39
2022-11-20T07:33:34.243Z,4.44
2022-11-20T07:36:36.786Z,4.44
2022-11-20T07:39:39.382Z,4.39
2022-11-20T07:42:56.380Z,4.60
2022-11-20T07:45:59.676Z,4.64
2022-11-20T07:49:02.228Z,4.50
2022-11-20T07:52:05.305Z,4.66
2022-11-20T07:55:10.069Z,4.55
2022-11-20T07:58:12.375Z,4.73
2022-11-20T08:01:14.924Z,4.71
2022-11-20T08:04:17.666Z,4.70
2022-11-20T08:07:19.964Z,4.58
2022-11-20T08:10:22.616Z,4.60
2022-11-20T08:13:43.629Z,4.80
2022-11-20T08:16:50.193Z,4.76
2022-11-20T08:19:52.461Z,4.84
2022-11-20T08:22:59.935Z,4.85
2022-11-20T08:26:02.305Z,4.73
2022-11-20T08:29:05.822Z,4.77
2022-11-20T08:32:08.595Z,4.96
2022-11-20T08:35:11.152Z,5.03
2022-11-20T08:38:13.481Z,5.10
2022-11-20T08:41:26.532Z,5.00
2022-11-20T08:44:28.786Z,5.15
2022-11-20T08:47:31.423Z,5.25
2022-11-20T08:50:34.187Z,5.29
2022-11-20T08:53:36.915Z,5.18
2022-11-20T08:56:39.183Z,5.38
2022-11-20T09:00:04.980Z,5.37
2022-11-20T09:03:04.007Z,5.42
2022-11-20T09:06:08.554Z,5.54
2022-11-20T09:09:10.864Z,5.57
2022-11-20T09:12:13.398Z,5.51
2022-11-20T09:15:15.766Z,5.51
2022-11-20T09:18:18.260Z,5.53
2022-11-20T09:21:20.629Z,5.58
2022-11-20T09:24:23.280Z,5.62
2022-11-20T09:27:25.543Z,5.62
2022-11-20T09:30:28.677Z,5.75
2022-11-20T09:33:31.296Z,5.74
2022-11-20T09:36:34.013Z,5.79
2022-11-20T09:39:39.864Z,5.83
2022-11-20T09:42:48.777Z,5.80
2022-11-20T09:46:12.872Z,6.02
2022-11-20T09:49:54.320Z,6.08
2022-11-20T09:53:20.554Z,6.14
2022-11-20T09:56:24.152Z,6.08
2022-11-20T09:59:48.043Z,6.27
2022-11-20T10:03:20.240Z,6.25
2022-11-20T10:06:31.747Z,6.21
2022-11-20T10:09:38.261Z,6.30
2022-11-20T10:13:06.364Z,6.21
2022-11-20T10:16:41.229Z,6.55
2022-11-20T10:20:07.639Z,6.71
2022-11-20T10:23:36.258Z,6.84
2022-11-20T10:26:51.015Z,6.99
2022-11-20T10:30:03.596Z,7.09
2022-11-20T10:33:17.076Z,7.21
2022-11-20T10:36:28.974Z,7.52
2022-11-20T10:40:05.565Z,7.80
2022-11-20T10:43:33.376Z,7.96
2022-11-20T10:46:41.686Z,8.24
2022-11-20T10:49:49.790Z,8.40
2022-11-20T10:53:13.859Z,9.26
2022-11-20T10:56:20.035Z,9.92
2022-11-20T10:59:44.222Z,10.33
2022-11-20T11:02:51.778Z,10.62
2022-11-20T11:06:11.606Z,10.61
2022-11-20T11:09:22.364Z,10.64
2022-11-20T11:12:27.241Z,10.75
2022-11-20T11:15:41.589Z,10.55
2022-11-20T11:18:44.171Z,10.28
2022-11-20T11:21:55.617Z,10.24
2022-11-20T11:24:59.109Z,9.87
2022-11-20T11:28:27.126Z,9.67
2022-11-20T11:31:35.384Z,9.55
2022-11-20T11:34:37.665Z,9.49
2022-11-20T11:37:40.670Z,9.36
2022-11-20T11:40:43.282Z,9.41
2022-11-20T11:44:16.693Z,9.44
2022-11-20T11:47:26.033Z,9.40
2022-11-20T11:50:29.880Z,9.48
2022-11-20T11:53:35.688Z,9.42
2022-11-20T11:56:38.570Z,9.36
2022-11-20T11:59:54.351Z,9.25
2022-11-20T12:03:28.820Z,9.25
2022-11-20T12:06:32.657Z,9.29
2022-11-20T12:09:42.264Z,9.30
2022-11-20T12:12:49.188Z,9.28
2022-11-20T12:15:51.396Z,9.21
2022-11-20T12:18:54.177Z,9.23
2022-11-20T12:22:32.858Z,9.24
2022-11-20T12:25:38.421Z,9.24
2022-11-20T12:28:53.791Z,9.07
2022-11-20T12:32:15.938Z,8.82
2022-11-20T12:35:36.900Z,9.01
2022-11-20T12:38:59.102Z,8.96
2022-11-20T12:42:47.741Z,8.68
2022-11-20T12:46:47.416Z,8.72
2022-11-20T12:50:20.336Z,8.71
2022-11-20T12:53:46.321Z,8.51
2022-11-20T12:57:12.007Z,8.54
2022-11-20T13:00:19.700Z,8.44
2022-11-20T13:03:50.648Z,8.43
2022-11-20T13:06:53.513Z,8.17
2022-11-20T13:09:56.297Z,8.27
2022-11-20T13:13:13.823Z,8.27
2022-11-20T13:16:47.351Z,8.18
2022-11-20T13:19:59.743Z,8.14
2022-11-20T13:23:01.998Z,8.25
2022-11-20T13:26:07.343Z,8.28
2022-11-20T13:29:18.085Z,8.32
2022-11-20T13:32:22.261Z,8.34
2022-11-20T13:35:36.264Z,8.40
2022-11-20T13:38:48.641Z,8.41
2022-11-20T13:41:57.142Z,8.37
2022-11-20T13:45:10.831Z,8.20
2022-11-20T13:48:22.765Z,8.32
2022-11-20T13:51:41.994Z,8.26
2022-11-20T13:55:12.394Z,8.18
2022-11-20T13:58:17.945Z,8.11
2022-11-20T14:01:33.004Z,8.06
2022-11-20T14:04:39.106Z,8.01
2022-11-20T14:07:43.569Z,7.88
2022-11-20T14:10:46.308Z,7.80
2022-11-20T14:14:16.661Z,7.85
2022-11-20T14:17:22.778Z,7.66
2022-11-20T14:20:29.138Z,7.60
2022-11-20T14:23:31.751Z,7.64
2022-11-20T14:26:34.984Z,7.48
2022-11-20T14:29:39.252Z,7.38
2022-11-20T14:32:42.122Z,7.46
2022-11-20T14:35:47.965Z,7.42
2022-11-20T14:38:51.579Z,7.17
2022-11-20T14:41:55.074Z,7.37
2022-11-20T14:45:00.086Z,7.30
2022-11-20T14:48:02.795Z,7.23
2022-11-20T14:51:05.181Z,7.22
2022-11-20T14:54:16.272Z,7.20
2022-11-20T14:57:24.772Z,7.10
2022-11-20T15:00:28.195Z,7.04
2022-11-20T15:03:38.052Z,7.03
2022-11-20T15:06:55.102Z,6.98
2022-11-20T15:10:02.796Z,6.84
2022-11-20T15:13:37.324Z,6.82
2022-11-20T15:16:40.569Z,6.88
2022-11-20T15:19:43.172Z,6.83
2022-11-20T15:22:45.576Z,6.76
2022-11-20T15:25:49.504Z,6.70
2022-11-20T15:28:52.885Z,6.66
2022-11-20T15:31:55.763Z,6.57
2022-11-20T15:34:58.024Z,6.54
2022-11-20T15:38:00.686Z,6.38
2022-11-20T15:41:05.474Z,6.41
2022-11-20T15:44:08.153Z,6.36
2022-11-20T15:47:11.731Z,6.33
2022-11-20T15:50:18.792Z,6.30
2022-11-20T15:53:21.171Z,6.11
2022-11-20T15:56:24.382Z,6.11
2022-11-20T15:59:26.674Z,6.21
2022-11-20T16:02:29.251Z,6.06
2022-11-20T16:05:32.084Z,6.11
2022-11-20T16:08:34.986Z,6.12
2022-11-20T16:11:38.429Z,6.06
2022-11-20T16:14:59.409Z,5.94
2022-11-20T16:18:01.999Z,6.06
2022-11-20T16:21:04.532Z,6.05
2022-11-20T16:24:08.708Z,5.91
2022-11-20T16:27:11.599Z,5.89
2022-11-20T16:30:14.285Z,6.04
2022-11-20T16:33:21.880Z,6.00
2022-11-20T16:36:26.788Z,6.00
2022-11-20T16:39:29.073Z,6.03
2022-11-20T16:42:34.713Z,6.02
2022-11-20T16:45:44.877Z,5.86
2022-11-20T16:48:55.290Z,5.84
2022-11-20T16:51:57.528Z,5.90
2022-11-20T16:55:00.161Z,5.75
2022-11-20T16:58:02.499Z,5.87
2022-11-20T17:01:10.779Z,5.82
2022-11-20T17:04:13.118Z,5.57
2022-11-20T17:07:15.929Z,5.80
2022-11-20T17:10:18.182Z,5.74
2022-11-20T17:13:20.689Z,5.71
2022-11-20T17:16:24.642Z,5.69
2022-11-20T17:19:27.073Z,5.59
2022-11-20T17:22:29.274Z,5.63
2022-11-20T17:25:34.502Z,5.61
2022-11-20T17:28:38.258Z,5.45
2022-11-20T17:31:41.179Z,5.45
2022-11-20T17:34:43.411Z,5.54
2022-11-20T17:37:46.081Z,5.45
2022-11-20T17:40:48.585Z,5.48
2022-11-20T17:43:57.670Z,5.23
2022-11-20T17:47:00.092Z,5.38
2022-11-20T17:50:04.826Z,5.41
2022-11-20T17:53:07.581Z,5.36
2022-11-20T17:56:29.228Z,5.33
2022-11-20T17:59:31.559Z,5.32
2022-11-20T18:02:34.127Z,5.30
2022-11-20T18:05:36.952Z,5.32
2022-11-20T18:08:39.946Z,5.32
2022-11-20T18:11:43.387Z,5.18
2022-11-20T18:14:47.227Z,5.23
2022-11-20T18:17:50.129Z,5.19
2022-11-20T18:20:55.639Z,5.26
2022-11-20T18:23:58.698Z,5.21
2022-11-20T18:27:01.024Z,5.20
2022-11-20T18:30:04.090Z,5.17
2022-11-20T18:33:06.671Z,5.12
2022-11-20T18:36:14.327Z,5.10
2022-11-20T18:39:17.523Z,5.07
2022-11-20T18:42:38.728Z,5.06
2022-11-20T18:45:42.598Z,4.94
2022-11-20T18:48:45.817Z,5.01
2022-11-20T18:51:48.235Z,4.95
2022-11-20T18:54:51.214Z,4.97
2022-11-20T18:57:55.185Z,4.85
2022-11-20T19:01:08.010Z,4.97
2022-11-20T19:04:13.347Z,4.98
2022-11-20T19:07:16.599Z,4.94
2022-11-20T19:10:20.367Z,4.94
2022-11-20T19:13:22.922Z,4.97
2022-11-20T19:16:25.305Z,4.96
2022-11-20T19:19:29.045Z,4.96
2022-11-20T19:22:31.335Z,4.96
2022-11-20T19:25:37.984Z,4.96
2022-11-20T19:28:40.862Z,4.98
2022-11-20T19:31:43.508Z,5.00
2022-11-20T19:34:46.906Z,4.83
2022-11-20T19:37:49.507Z,4.94
2022-11-20T19:40:51.775Z,4.92
2022-11-20T19:43:59.636Z,4.86
2022-11-20T19:47:04.038Z,4.68
2022-11-20T19:50:07.198Z,4.80
2022-11-20T19:53:11.415Z,4.76
2022-11-20T19:56:14.820Z,4.63
2022-11-20T19:59:17.130Z,4.62
2022-11-20T20:02:19.692Z,4.64
2022-11-20T20:05:22.498Z,4.62
2022-11-20T20:08:25.711Z,4.60
2022-11-20T20:11:30.493Z,4.59
2022-11-20T20:14:32.831Z,4.57
2022-11-20T20:17:35.428Z,4.41
2022-11-20T20:20:37.684Z,4.35
2022-11-20T20:23:42.355Z,4.55
2022-11-20T20:26:44.589Z,4.57
2022-11-20T20:29:47.157Z,4.57
2022-11-20T20:32:54.779Z,4.56
2022-11-20T20:35:59.480Z,4.56
2022-11-20T20:39:04.666Z,4.55
2022-11-20T20:42:07.245Z,4.55
2022-11-20T20:45:11.212Z,4.57
2022-11-20T20:48:16.158Z,4.57
2022-11-20T20:51:18.534Z,4.44
2022-11-20T20:54:21.488Z,4.59
2022-11-20T20:57:25.009Z,4.30
2022-11-20T21:00:27.567Z,4.53
2022-11-20T21:03:32.962Z,4.47
2022-11-20T21:06:36.735Z,4.43
2022-11-20T21:09:39.048Z,4.33
2022-11-20T21:12:41.577Z,4.24
2022-11-20T21:15:48.255Z,4.39
2022-11-20T21:18:50.862Z,4.39
2022-11-20T21:21:59.055Z,4.33
2022-11-20T21:25:01.585Z,4.01
2022-11-20T21:28:03.888Z,4.23
2022-11-20T21:31:13.386Z,4.31
2022-11-20T21:34:16.598Z,4.29
2022-11-20T21:37:19.193Z,4.30
2022-11-20T21:40:21.436Z,4.15
2022-11-20T21:43:24.041Z,4.12
2022-11-20T21:46:26.553Z,4.21
2022-11-20T21:49:30.166Z,4.19
2022-11-20T21:52:32.458Z,4.04
2022-11-20T21:55:35.055Z,4.17
2022-11-20T21:58:39.432Z,4.09
2022-11-20T22:01:42.165Z,4.12
2022-11-20T22:04:44.690Z,4.09
2022-11-20T22:07:46.931Z,3.95
2022-11-20T22:11:03.350Z,4.05
2022-11-20T22:14:20.895Z,3.91
2022-11-20T22:17:43.517Z,3.98
2022-11-20T22:20:45.766Z,3.90
2022-11-20T22:23:49.000Z,4.02
2022-11-20T22:26:51.675Z,4.03
2022-11-20T22:29:54.256Z,4.03
2022-11-20T22:32:56.577Z,4.00
2022-11-20T22:36:04.175Z,4.02
2022-11-20T22:39:07.130Z,3.98
2022-11-20T22:42:09.641Z,3.96
2022-11-20T22:45:13.630Z,3.94
2022-11-20T22:48:16.159Z,3.87
2022-11-20T22:51:21.096Z,3.92
2022-11-20T22:54:23.896Z,3.90
2022-11-20T22:57:26.314Z,3.92
2022-11-20T23:00:28.941Z,3.91
2022-11-20T23:03:31.274Z,3.73
2022-11-20T23:06:37.017Z,3.88
2022-11-20T23:09:39.338Z,3.85
2022-11-20T23:12:42.705Z,3.84
2022-11-20T23:15:44.986Z,3.86
2022-11-20T23:18:48.159Z,3.62
2022-11-20T23:21:50.395Z,3.84
2022-11-20T23:24:52.886Z,3.68
2022-11-20T23:27:55.122Z,3.81
2022-11-20T23:30:58.351Z,3.69
2022-11-20T23:34:01.103Z,3.78
2022-11-20T23:37:03.667Z,3.74
2022-11-20T23:40:06.683Z,3.70
2022-11-20T23:43:17.983Z,3.61
2022-11-20T23:46:20.743Z,3.58
2022-11-20T23:49:23.517Z,3.43
2022-11-20T23:52:27.110Z,3.54
2022-11-20T23:55:29.741Z,3.56
2022-11-20T23:58:38.697Z,3.56
